sensor_id;sensor_type;location;lat;lon;timestamp;pressure;altitude;pressure_sealevel;temperature;humidity
58239;BME280;44037;55.638;37.356;2023-07-31T00:01:47;98394.22;;;15.85;100.00
58239;BME280;44037;55.638;37.356;2023-07-31T00:04:14;98386.44;;;15.81;100.00
58239;BME280;44037;55.638;37.356;2023-07-31T00:06:41;98386.53;;;15.78;100.00
58239;BME280;44037;55.638;37.356;2023-07-31T00:09:09;98392.72;;;15.76;100.00
58239;BME280;44037;55.638;37.356;2023-07-31T00:11:36;98394.56;;;15.72;100.00
58239;BME280;44037;55.638;37.356;2023-07-31T00:14:03;98385.84;;;15.73;100.00
58239;BME280;44037;55.638;37.356;2023-07-31T00:16:31;98385.84;;;15.73;100.00
58239;BME280;44037;55.638;37.356;2023-07-31T00:18:59;98382.50;;;15.68;100.00
58239;BME280;44037;55.638;37.356;2023-07-31T00:21:26;98393.03;;;15.65;100.00
58239;BME280;44037;55.638;37.356;2023-07-31T00:23:54;98395.72;;;15.63;100.00
58239;BME280;44037;55.638;37.356;2023-07-31T00:26:21;98394.00;;;15.62;100.00
58239;BME280;44037;55.638;37.356;2023-07-31T00:28:48;98402.72;;;15.61;100.00
58239;BME280;44037;55.638;37.356;2023-07-31T00:31:15;98395.75;;;15.62;100.00
58239;BME280;44037;55.638;37.356;2023-07-31T00:33:42;98396.53;;;15.64;100.00
58239;BME280;44037;55.638;37.356;2023-07-31T00:36:11;98400.03;;;15.64;100.00
58239;BME280;44037;55.638;37.356;2023-07-31T00:38:38;98397.44;;;15.63;100.00
58239;BME280;44037;55.638;37.356;2023-07-31T00:41:05;98399.31;;;15.59;100.00
58239;BME280;44037;55.638;37.356;2023-07-31T00:43:33;98396.84;;;15.55;100.00
58239;BME280;44037;55.638;37.356;2023-07-31T00:46:00;98392.59;;;15.50;100.00
58239;BME280;44037;55.638;37.356;2023-07-31T00:48:27;98390.13;;;15.47;100.00
58239;BME280;44037;55.638;37.356;2023-07-31T00:50:55;98386.69;;;15.45;100.00
58239;BME280;44037;55.638;37.356;2023-07-31T00:53:24;98394.53;;;15.45;100.00
58239;BME280;44037;55.638;37.356;2023-07-31T00:55:52;98395.34;;;15.47;100.00
58239;BME280;44037;55.638;37.356;2023-07-31T00:58:19;98377.09;;;15.46;100.00
58239;BME280;44037;55.638;37.356;2023-07-31T01:00:46;98380.59;;;15.45;100.00
58239;BME280;44037;55.638;37.356;2023-07-31T01:03:14;98380.72;;;15.42;100.00
58239;BME280;44037;55.638;37.356;2023-07-31T01:05:46;98383.34;;;15.40;100.00
58239;BME280;44037;55.638;37.356;2023-07-31T01:08:22;98376.53;;;15.36;100.00
58239;BME280;44037;55.638;37.356;2023-07-31T01:11:04;98382.69;;;15.33;100.00
58239;BME280;44037;55.638;37.356;2023-07-31T01:13:34;98380.13;;;15.32;100.00
58239;BME280;44037;55.638;37.356;2023-07-31T01:16:02;98380.06;;;15.33;100.00
58239;BME280;44037;55.638;37.356;2023-07-31T01:18:29;98378.28;;;15.35;100.00
58239;BME280;44037;55.638;37.356;2023-07-31T01:21:03;98372.91;;;15.40;100.00
58239;BME280;44037;55.638;37.356;2023-07-31T01:23:56;98367.63;;;15.43;100.00
58239;BME280;44037;55.638;37.356;2023-07-31T01:26:34;98381.47;;;15.45;100.00
58239;BME280;44037;55.638;37.356;2023-07-31T01:29:08;98382.31;;;15.46;100.00
58239;BME280;44037;55.638;37.356;2023-07-31T01:31:38;98382.31;;;15.46;100.00
58239;BME280;44037;55.638;37.356;2023-07-31T01:34:07;98390.13;;;15.47;100.00
58239;BME280;44037;55.638;37.356;2023-07-31T01:36:36;98382.22;;;15.49;100.00
58239;BME280;44037;55.638;37.356;2023-07-31T01:39:04;98383.03;;;15.51;100.00
58239;BME280;44037;55.638;37.356;2023-07-31T01:41:32;98383.13;;;15.48;100.00
58239;BME280;44037;55.638;37.356;2023-07-31T01:43:59;98380.59;;;15.45;100.00
58239;BME280;44037;55.638;37.356;2023-07-31T01:46:26;98378.06;;;15.43;100.00
58239;BME280;44037;55.638;37.356;2023-07-31T01:48:54;98379.75;;;15.44;100.00
58239;BME280;44037;55.638;37.356;2023-07-31T01:51:21;98379.75;;;15.44;100.00
58239;BME280;44037;55.638;37.356;2023-07-31T01:53:48;98377.97;;;15.46;100.00
58239;BME280;44037;55.638;37.356;2023-07-31T01:56:15;98381.31;;;15.50;100.00
58239;BME280;44037;55.638;37.356;2023-07-31T01:58:44;98379.44;;;15.55;100.00
58239;BME280;44037;55.638;37.356;2023-07-31T02:01:11;98374.88;;;15.62;100.00
58239;BME280;44037;55.638;37.356;2023-07-31T02:03:38;98386.97;;;15.64;100.00
58239;BME280;44037;55.638;37.356;2023-07-31T02:06:06;98373.03;;;15.65;100.00
58239;BME280;44037;55.638;37.356;2023-07-31T02:08:33;98377.28;;;15.68;100.00
58239;BME280;44037;55.638;37.356;2023-07-31T02:11:00;98365.84;;;15.72;100.00
58239;BME280;44037;55.638;37.356;2023-07-31T02:13:27;98372.66;;;15.76;100.00
58239;BME280;44037;55.638;37.356;2023-07-31T02:15:56;98374.19;;;15.84;100.00
58239;BME280;44037;55.638;37.356;2023-07-31T02:18:23;98378.31;;;15.91;100.00
58239;BME280;44037;55.638;37.356;2023-07-31T02:20:51;98383.28;;;16.00;100.00
58239;BME280;44037;55.638;37.356;2023-07-31T02:23:18;98382.84;;;16.12;100.00
58239;BME280;44037;55.638;37.356;2023-07-31T02:25:45;98377.09;;;16.28;100.00
58239;BME280;44037;55.638;37.356;2023-07-31T02:28:12;98379.97;;;16.46;100.00
58239;BME280;44037;55.638;37.356;2023-07-31T02:30:39;98383.63;;;16.65;100.00
58239;BME280;44037;55.638;37.356;2023-07-31T02:33:08;98383.72;;;16.87;100.00
58239;BME280;44037;55.638;37.356;2023-07-31T02:35:35;98390.94;;;17.06;100.00
58239;BME280;44037;55.638;37.356;2023-07-31T02:38:02;98376.13;;;17.29;99.94
58239;BME280;44037;55.638;37.356;2023-07-31T02:40:29;98381.88;;;17.39;97.07
58239;BME280;44037;55.638;37.356;2023-07-31T02:42:56;98373.94;;;17.40;99.54
58239;BME280;44037;55.638;37.356;2023-07-31T02:45:24;98381.25;;;17.54;100.00
58239;BME280;44037;55.638;37.356;2023-07-31T02:47:51;98371.59;;;17.77;100.00
58239;BME280;44037;55.638;37.356;2023-07-31T02:50:19;98379.28;;;18.04;98.49
58239;BME280;44037;55.638;37.356;2023-07-31T02:53:10;98372.88;;;18.32;96.81
58239;BME280;44037;55.638;37.356;2023-07-31T02:55:38;98377.06;;;18.56;94.65
58239;BME280;44037;55.638;37.356;2023-07-31T02:58:05;98368.59;;;18.70;83.31
58239;BME280;44037;55.638;37.356;2023-07-31T03:00:35;98368.56;;;18.51;81.94
58239;BME280;44037;55.638;37.356;2023-07-31T03:03:02;98364.09;;;18.33;83.55
58239;BME280;44037;55.638;37.356;2023-07-31T03:05:31;98365.81;;;18.34;83.72
58239;BME280;44037;55.638;37.356;2023-07-31T03:07:58;98362.00;;;18.41;83.25
58239;BME280;44037;55.638;37.356;2023-07-31T03:10:28;98364.16;;;18.52;83.99
58239;BME280;44037;55.638;37.356;2023-07-31T03:12:55;98367.88;;;18.67;83.58
58239;BME280;44037;55.638;37.356;2023-07-31T03:15:22;98365.50;;;18.81;81.77
58239;BME280;44037;55.638;37.356;2023-07-31T03:17:49;98363.88;;;18.79;77.62
58239;BME280;44037;55.638;37.356;2023-07-31T03:20:16;98357.66;;;18.61;78.15
58239;BME280;44037;55.638;37.356;2023-07-31T03:22:45;98366.72;;;18.53;79.33
58239;BME280;44037;55.638;37.356;2023-07-31T03:25:12;98371.03;;;18.54;79.07
58239;BME280;44037;55.638;37.356;2023-07-31T03:27:40;98367.25;;;18.62;80.40
58239;BME280;44037;55.638;37.356;2023-07-31T03:30:08;98367.63;;;18.73;79.48
58239;BME280;44037;55.638;37.356;2023-07-31T03:32:35;98368.81;;;18.85;78.65
58239;BME280;44037;55.638;37.356;2023-07-31T03:35:03;98363.03;;;18.97;78.78
58239;BME280;44037;55.638;37.356;2023-07-31T03:37:31;98366.63;;;18.96;78.15
58239;BME280;44037;55.638;37.356;2023-07-31T03:40:00;98368.09;;;18.81;78.97
58239;BME280;44037;55.638;37.356;2023-07-31T03:42:29;98365.81;;;18.73;81.84
58239;BME280;44037;55.638;37.356;2023-07-31T03:44:56;98361.69;;;18.88;82.84
58239;BME280;44037;55.638;37.356;2023-07-31T03:47:23;98372.84;;;19.13;81.82
58239;BME280;44037;55.638;37.356;2023-07-31T03:49:51;98363.91;;;19.36;81.02
58239;BME280;44037;55.638;37.356;2023-07-31T03:52:18;98367.22;;;19.59;80.37
58239;BME280;44037;55.638;37.356;2023-07-31T03:54:45;98369.56;;;19.83;76.11
58239;BME280;44037;55.638;37.356;2023-07-31T03:57:13;98364.53;;;19.78;73.27
58239;BME280;44037;55.638;37.356;2023-07-31T03:59:41;98376.00;;;19.58;73.32
58239;BME280;44037;55.638;37.356;2023-07-31T04:02:08;98374.44;;;19.54;78.11
58239;BME280;44037;55.638;37.356;2023-07-31T04:04:35;98372.66;;;19.73;79.56
58239;BME280;44037;55.638;37.356;2023-07-31T04:07:03;98373.19;;;19.99;79.35
58239;BME280;44037;55.638;37.356;2023-07-31T04:09:30;98376.13;;;20.28;78.49
58239;BME280;44037;55.638;37.356;2023-07-31T04:11:57;98369.41;;;20.56;77.99
58239;BME280;44037;55.638;37.356;2023-07-31T04:14:26;98380.38;;;20.82;72.19
58239;BME280;44037;55.638;37.356;2023-07-31T04:16:53;98376.66;;;20.68;70.75
58239;BME280;44037;55.638;37.356;2023-07-31T04:19:20;98382.13;;;20.48;71.85
58239;BME280;44037;55.638;37.356;2023-07-31T04:21:47;98375.25;;;20.45;75.90
58239;BME280;44037;55.638;37.356;2023-07-31T04:24:14;98380.22;;;20.67;76.32
58239;BME280;44037;55.638;37.356;2023-07-31T04:26:47;98381.59;;;20.92;75.42
58239;BME280;44037;55.638;37.356;2023-07-31T04:29:15;98382.06;;;21.16;72.88
58239;BME280;44037;55.638;37.356;2023-07-31T04:31:43;98379.28;;;21.36;70.04
58239;BME280;44037;55.638;37.356;2023-07-31T04:34:10;98382.84;;;21.35;64.08
58239;BME280;44037;55.638;37.356;2023-07-31T04:36:38;98379.41;;;21.00;64.68
58239;BME280;44037;55.638;37.356;2023-07-31T04:39:05;98378.78;;;20.79;67.31
58239;BME280;44037;55.638;37.356;2023-07-31T04:41:32;98386.75;;;20.78;67.96
58239;BME280;44037;55.638;37.356;2023-07-31T04:44:00;98382.09;;;20.83;68.03
58239;BME280;44037;55.638;37.356;2023-07-31T04:46:29;98393.09;;;20.91;67.43
58239;BME280;44037;55.638;37.356;2023-07-31T04:48:58;98387.63;;;20.94;67.33
58239;BME280;44037;55.638;37.356;2023-07-31T04:51:25;98383.63;;;20.87;67.63
58239;BME280;44037;55.638;37.356;2023-07-31T04:53:52;98379.78;;;20.59;68.54
58239;BME280;44037;55.638;37.356;2023-07-31T04:56:19;98385.84;;;20.44;69.03
58239;BME280;44037;55.638;37.356;2023-07-31T04:58:46;98383.94;;;20.47;69.37
58239;BME280;44037;55.638;37.356;2023-07-31T05:01:13;98386.91;;;20.57;70.22
58239;BME280;44037;55.638;37.356;2023-07-31T05:03:41;98383.72;;;20.68;69.66
58239;BME280;44037;55.638;37.356;2023-07-31T05:06:09;98390.91;;;20.82;68.87
58239;BME280;44037;55.638;37.356;2023-07-31T05:08:37;98386.28;;;20.87;66.29
58239;BME280;44037;55.638;37.356;2023-07-31T05:11:04;98387.50;;;20.80;66.65
58239;BME280;44037;55.638;37.356;2023-07-31T05:13:32;98386.00;;;20.76;69.20
58239;BME280;44037;55.638;37.356;2023-07-31T05:16:00;98389.06;;;20.84;67.17
58239;BME280;44037;55.638;37.356;2023-07-31T05:18:27;98387.72;;;20.93;65.67
58239;BME280;44037;55.638;37.356;2023-07-31T05:20:54;98392.50;;;21.02;65.37
58239;BME280;44037;55.638;37.356;2023-07-31T05:23:23;98394.81;;;21.08;63.97
58239;BME280;44037;55.638;37.356;2023-07-31T05:25:50;98393.00;;;21.09;62.21
58239;BME280;44037;55.638;37.356;2023-07-31T05:28:17;98388.16;;;21.01;61.33
58239;BME280;44037;55.638;37.356;2023-07-31T05:30:44;98389.09;;;21.00;63.28
58239;BME280;44037;55.638;37.356;2023-07-31T05:33:11;98393.00;;;21.09;63.35
58239;BME280;44037;55.638;37.356;2023-07-31T05:35:38;98389.88;;;21.18;65.32
58239;BME280;44037;55.638;37.356;2023-07-31T05:38:05;98391.09;;;21.28;63.87
58239;BME280;44037;55.638;37.356;2023-07-31T05:40:34;98396.78;;;21.37;62.58
58239;BME280;44037;55.638;37.356;2023-07-31T05:43:01;98401.13;;;21.38;61.41
58239;BME280;44037;55.638;37.356;2023-07-31T05:45:28;98400.50;;;21.32;60.48
58239;BME280;44037;55.638;37.356;2023-07-31T05:47:55;98402.38;;;21.30;60.22
58239;BME280;44037;55.638;37.356;2023-07-31T05:50:22;98402.03;;;21.37;60.66
58239;BME280;44037;55.638;37.356;2023-07-31T05:52:49;98406.81;;;21.46;60.61
58239;BME280;44037;55.638;37.356;2023-07-31T05:55:17;98395.94;;;21.52;60.47
58239;BME280;44037;55.638;37.356;2023-07-31T05:57:46;98400.84;;;21.58;58.67
58239;BME280;44037;55.638;37.356;2023-07-31T06:00:14;98392.81;;;21.61;57.58
58239;BME280;44037;55.638;37.356;2023-07-31T06:02:41;98396.38;;;21.60;56.93
58239;BME280;44037;55.638;37.356;2023-07-31T06:05:08;98391.63;;;21.67;57.82
58239;BME280;44037;55.638;37.356;2023-07-31T06:07:36;98390.16;;;21.77;57.65
58239;BME280;44037;55.638;37.356;2023-07-31T06:10:04;98390.66;;;21.84;57.35
58239;BME280;44037;55.638;37.356;2023-07-31T06:12:32;98391.91;;;21.93;59.38
58239;BME280;44037;55.638;37.356;2023-07-31T06:15:02;98387.91;;;22.02;58.36
58239;BME280;44037;55.638;37.356;2023-07-31T06:17:32;98389.41;;;22.06;57.45
58239;BME280;44037;55.638;37.356;2023-07-31T06:19:59;98396.38;;;22.07;57.41
58239;BME280;44037;55.638;37.356;2023-07-31T06:22:26;98392.53;;;22.13;56.07
58239;BME280;44037;55.638;37.356;2023-07-31T06:24:53;98395.66;;;22.19;55.80
58239;BME280;44037;55.638;37.356;2023-07-31T06:27:20;98389.00;;;22.28;56.37
58239;BME280;44037;55.638;37.356;2023-07-31T06:29:47;98389.31;;;22.38;56.53
58239;BME280;44037;55.638;37.356;2023-07-31T06:32:16;98385.97;;;22.50;56.32
58239;BME280;44037;55.638;37.356;2023-07-31T06:34:43;98392.50;;;22.59;55.38
58239;BME280;44037;55.638;37.356;2023-07-31T06:37:10;98393.34;;;22.60;53.34
58239;BME280;44037;55.638;37.356;2023-07-31T06:39:37;98395.78;;;22.63;53.18
58239;BME280;44037;55.638;37.356;2023-07-31T06:42:05;98394.69;;;22.67;52.86
58239;BME280;44037;55.638;37.356;2023-07-31T06:44:32;98391.75;;;22.72;53.37
58239;BME280;44037;55.638;37.356;2023-07-31T06:46:59;98399.22;;;22.79;53.97
58239;BME280;44037;55.638;37.356;2023-07-31T06:49:27;98402.41;;;22.84;52.33
58239;BME280;44037;55.638;37.356;2023-07-31T06:51:55;98399.75;;;22.84;51.59
58239;BME280;44037;55.638;37.356;2023-07-31T06:54:22;98396.66;;;22.78;50.61
58239;BME280;44037;55.638;37.356;2023-07-31T06:56:49;98398.63;;;22.74;50.37
58239;BME280;44037;55.638;37.356;2023-07-31T06:59:16;98398.34;;;22.79;50.63
58239;BME280;44037;55.638;37.356;2023-07-31T07:01:43;98399.22;;;22.79;50.08
58239;BME280;44037;55.638;37.356;2023-07-31T07:04:10;98400.69;;;22.83;49.45
58239;BME280;44037;55.638;37.356;2023-07-31T07:06:39;98404.97;;;22.86;48.42
58239;BME280;44037;55.638;37.356;2023-07-31T07:09:06;98404.84;;;22.88;47.83
58239;BME280;44037;55.638;37.356;2023-07-31T07:11:33;98407.59;;;22.86;47.62
58239;BME280;44037;55.638;37.356;2023-07-31T07:14:00;98407.50;;;22.88;48.06
58239;BME280;44037;55.638;37.356;2023-07-31T07:16:28;98403.81;;;22.90;48.75
58239;BME280;44037;55.638;37.356;2023-07-31T07:18:55;98403.53;;;22.95;48.44
58239;BME280;44037;55.638;37.356;2023-07-31T07:21:23;98404.88;;;23.02;48.84
58239;BME280;44037;55.638;37.356;2023-07-31T07:23:51;98406.28;;;23.08;48.27
58239;BME280;44037;55.638;37.356;2023-07-31T07:26:18;98403.34;;;23.12;47.65
58239;BME280;44037;55.638;37.356;2023-07-31T07:28:45;98405.88;;;23.14;46.92
58239;BME280;44037;55.638;37.356;2023-07-31T07:31:12;98408.19;;;23.20;48.59
58239;BME280;44037;55.638;37.356;2023-07-31T07:33:40;98405.25;;;23.25;47.60
58239;BME280;44037;55.638;37.356;2023-07-31T07:36:07;98411.94;;;23.30;47.29
58239;BME280;44037;55.638;37.356;2023-07-31T07:38:35;98407.41;;;23.33;46.63
58239;BME280;44037;55.638;37.356;2023-07-31T07:41:06;98408.34;;;23.31;46.83
58239;BME280;44037;55.638;37.356;2023-07-31T07:43:33;98405.81;;;23.30;46.29
58239;BME280;44037;55.638;37.356;2023-07-31T07:46:00;98401.47;;;23.29;47.59
58239;BME280;44037;55.638;37.356;2023-07-31T07:48:27;98415.03;;;23.37;47.58
58239;BME280;44037;55.638;37.356;2023-07-31T07:50:54;98405.88;;;23.43;46.49
58239;BME280;44037;55.638;37.356;2023-07-31T07:53:21;98405.56;;;23.47;45.98
58239;BME280;44037;55.638;37.356;2023-07-31T07:55:49;98407.91;;;23.52;46.71
58239;BME280;44037;55.638;37.356;2023-07-31T07:58:17;98405.72;;;23.59;45.76
58239;BME280;44037;55.638;37.356;2023-07-31T08:00:48;98406.31;;;23.64;45.92
58239;BME280;44037;55.638;37.356;2023-07-31T08:03:16;98409.78;;;23.65;46.24
58239;BME280;44037;55.638;37.356;2023-07-31T08:05:43;98404.75;;;23.74;46.47
58239;BME280;44037;55.638;37.356;2023-07-31T08:08:14;98408.50;;;23.85;46.57
58239;BME280;44037;55.638;37.356;2023-07-31T08:10:41;98412.22;;;23.95;45.07
58239;BME280;44037;55.638;37.356;2023-07-31T08:13:09;98408.16;;;24.04;44.78
58239;BME280;44037;55.638;37.356;2023-07-31T08:15:38;98405.44;;;24.05;45.66
58239;BME280;44037;55.638;37.356;2023-07-31T08:18:07;98406.81;;;24.11;45.78
58239;BME280;44037;55.638;37.356;2023-07-31T08:20:37;98411.19;;;24.25;44.99
58239;BME280;44037;55.638;37.356;2023-07-31T08:23:07;98400.84;;;24.48;42.29
58239;BME280;44037;55.638;37.356;2023-07-31T08:25:34;98409.56;;;24.63;42.22
58239;BME280;44037;55.638;37.356;2023-07-31T08:28:01;98408.56;;;24.64;43.08
58239;BME280;44037;55.638;37.356;2023-07-31T08:30:29;98412.91;;;24.65;42.75
58239;BME280;44037;55.638;37.356;2023-07-31T08:33:00;98411.22;;;24.51;41.09
58239;BME280;44037;55.638;37.356;2023-07-31T08:35:28;98407.41;;;24.55;41.47
58239;BME280;44037;55.638;37.356;2023-07-31T08:37:56;98423.81;;;24.60;41.09
58239;BME280;44037;55.638;37.356;2023-07-31T08:40:25;98419.06;;;24.65;41.34
58239;BME280;44037;55.638;37.356;2023-07-31T08:43:10;98409.16;;;24.82;41.11
58239;BME280;44037;55.638;37.356;2023-07-31T08:45:41;98406.50;;;24.82;42.04
58239;BME280;44037;55.638;37.356;2023-07-31T08:48:11;98411.16;;;24.91;41.42
58239;BME280;44037;55.638;37.356;2023-07-31T08:50:38;98413.16;;;25.00;41.63
58239;BME280;44037;55.638;37.356;2023-07-31T08:53:06;98408.28;;;25.07;41.37
58239;BME280;44037;55.638;37.356;2023-07-31T08:55:33;98420.53;;;25.21;39.81
58239;BME280;44037;55.638;37.356;2023-07-31T08:58:03;98415.97;;;25.23;40.38
58239;BME280;44037;55.638;37.356;2023-07-31T09:00:32;98418.00;;;25.33;40.46
58239;BME280;44037;55.638;37.356;2023-07-31T09:03:03;98413.94;;;25.27;40.68
58239;BME280;44037;55.638;37.356;2023-07-31T09:05:31;98416.91;;;25.35;40.64
58239;BME280;44037;55.638;37.356;2023-07-31T09:08:00;98414.56;;;25.56;40.69
58239;BME280;44037;55.638;37.356;2023-07-31T09:10:28;98409.72;;;25.74;40.73
58239;BME280;44037;55.638;37.356;2023-07-31T09:12:56;98409.44;;;25.90;40.55
58239;BME280;44037;55.638;37.356;2023-07-31T09:15:24;98410.25;;;25.91;39.35
58239;BME280;44037;55.638;37.356;2023-07-31T09:17:59;98407.22;;;25.84;40.02
58239;BME280;44037;55.638;37.356;2023-07-31T09:20:27;98404.91;;;25.80;39.42
58239;BME280;44037;55.638;37.356;2023-07-31T09:22:56;98409.56;;;25.89;40.28
58239;BME280;44037;55.638;37.356;2023-07-31T09:25:31;98408.13;;;25.96;40.32
58239;BME280;44037;55.638;37.356;2023-07-31T09:28:00;98408.47;;;26.16;40.30
58239;BME280;44037;55.638;37.356;2023-07-31T09:30:27;98406.13;;;26.35;39.66
58239;BME280;44037;55.638;37.356;2023-07-31T09:33:00;98415.19;;;26.33;39.32
58239;BME280;44037;55.638;37.356;2023-07-31T09:35:30;98418.19;;;26.04;38.49
58239;BME280;44037;55.638;37.356;2023-07-31T09:38:00;98414.88;;;25.89;39.25
58239;BME280;44037;55.638;37.356;2023-07-31T09:40:28;98415.69;;;25.89;39.59
58239;BME280;44037;55.638;37.356;2023-07-31T09:42:56;98421.41;;;25.96;39.90
58239;BME280;44037;55.638;37.356;2023-07-31T09:45:25;98419.25;;;26.01;39.77
58239;BME280;44037;55.638;37.356;2023-07-31T09:47:52;98421.28;;;25.98;39.63
58239;BME280;44037;55.638;37.356;2023-07-31T09:50:21;98413.50;;;25.83;40.01
58239;BME280;44037;55.638;37.356;2023-07-31T09:52:49;98411.44;;;25.63;41.13
58239;BME280;44037;55.638;37.356;2023-07-31T09:55:18;98405.88;;;25.54;40.43
58239;BME280;44037;55.638;37.356;2023-07-31T09:57:47;98412.00;;;25.55;41.12
58239;BME280;44037;55.638;37.356;2023-07-31T10:00:16;98414.09;;;25.63;41.17
58239;BME280;44037;55.638;37.356;2023-07-31T10:02:45;98409.38;;;25.79;39.96
58239;BME280;44037;55.638;37.356;2023-07-31T10:05:13;98410.13;;;25.81;40.40
58239;BME280;44037;55.638;37.356;2023-07-31T10:07:43;98410.84;;;25.83;40.66
58239;BME280;44037;55.638;37.356;2023-07-31T10:10:13;98409.31;;;25.92;40.15
58239;BME280;44037;55.638;37.356;2023-07-31T10:12:44;98415.88;;;25.99;40.17
58239;BME280;44037;55.638;37.356;2023-07-31T10:15:13;98417.97;;;26.07;40.62
58239;BME280;44037;55.638;37.356;2023-07-31T10:17:41;98413.84;;;26.27;39.94
58239;BME280;44037;55.638;37.356;2023-07-31T10:20:10;98413.97;;;26.37;39.18
58239;BME280;44037;55.638;37.356;2023-07-31T10:22:38;98409.88;;;26.33;40.00
58239;BME280;44037;55.638;37.356;2023-07-31T10:25:08;98419.59;;;26.21;40.24
58239;BME280;44037;55.638;37.356;2023-07-31T10:27:36;98417.50;;;26.13;40.29
58239;BME280;44037;55.638;37.356;2023-07-31T10:30:09;98416.25;;;26.06;40.16
58239;BME280;44037;55.638;37.356;2023-07-31T10:32:38;98421.06;;;26.01;40.23
58239;BME280;44037;55.638;37.356;2023-07-31T10:35:08;98410.91;;;25.95;40.42
58239;BME280;44037;55.638;37.356;2023-07-31T10:37:41;98420.16;;;25.89;40.64
58239;BME280;44037;55.638;37.356;2023-07-31T10:40:11;98424.22;;;25.82;39.84
58239;BME280;44037;55.638;37.356;2023-07-31T10:42:46;98424.00;;;25.85;39.94
58239;BME280;44037;55.638;37.356;2023-07-31T10:45:24;98420.09;;;26.02;39.90
58239;BME280;44037;55.638;37.356;2023-07-31T10:47:59;98416.44;;;26.16;39.66
58239;BME280;44037;55.638;37.356;2023-07-31T10:50:31;98410.84;;;26.32;39.53
58239;BME280;44037;55.638;37.356;2023-07-31T10:53:00;98412.69;;;26.54;39.25
58239;BME280;44037;55.638;37.356;2023-07-31T10:55:30;98411.34;;;26.60;39.32
58239;BME280;44037;55.638;37.356;2023-07-31T10:58:05;98413.81;;;26.74;39.55
58239;BME280;44037;55.638;37.356;2023-07-31T11:00:37;98413.00;;;26.96;39.52
58239;BME280;44037;55.638;37.356;2023-07-31T11:03:05;98416.97;;;27.36;39.20
58239;BME280;44037;55.638;37.356;2023-07-31T11:05:59;98408.81;;;27.83;38.85
58239;BME280;44037;55.638;37.356;2023-07-31T11:08:30;98405.59;;;28.33;38.23
58239;BME280;44037;55.638;37.356;2023-07-31T11:11:07;98411.38;;;28.81;37.94
58239;BME280;44037;55.638;37.356;2023-07-31T11:13:40;98401.19;;;28.96;37.73
58239;BME280;44037;55.638;37.356;2023-07-31T11:16:10;98392.81;;;29.01;37.34
58239;BME280;44037;55.638;37.356;2023-07-31T11:18:41;98396.69;;;28.87;37.05
58239;BME280;44037;55.638;37.356;2023-07-31T11:21:09;98395.13;;;28.84;37.21
58239;BME280;44037;55.638;37.356;2023-07-31T11:23:38;98398.13;;;28.91;37.46
58239;BME280;44037;55.638;37.356;2023-07-31T11:26:06;98395.06;;;29.05;37.37
58239;BME280;44037;55.638;37.356;2023-07-31T11:28:34;98397.91;;;29.14;37.03
58239;BME280;44037;55.638;37.356;2023-07-31T11:31:04;98396.19;;;29.03;36.60
58239;BME280;44037;55.638;37.356;2023-07-31T11:33:33;98398.84;;;28.72;36.72
58239;BME280;44037;55.638;37.356;2023-07-31T11:36:00;98406.44;;;28.55;36.86
58239;BME280;44037;55.638;37.356;2023-07-31T11:38:29;98408.47;;;28.42;37.34
58239;BME280;44037;55.638;37.356;2023-07-31T11:40:58;98410.72;;;28.25;36.91
58239;BME280;44037;55.638;37.356;2023-07-31T11:43:25;98412.47;;;28.15;37.27
58239;BME280;44037;55.638;37.356;2023-07-31T11:45:54;98419.22;;;28.19;38.02
58239;BME280;44037;55.638;37.356;2023-07-31T11:48:23;98398.91;;;28.39;38.00
58239;BME280;44037;55.638;37.356;2023-07-31T11:50:55;98409.75;;;28.69;37.31
58239;BME280;44037;55.638;37.356;2023-07-31T11:53:28;98400.94;;;28.99;36.52
58239;BME280;44037;55.638;37.356;2023-07-31T11:55:58;98400.75;;;29.22;36.54
58239;BME280;44037;55.638;37.356;2023-07-31T11:58:26;98395.97;;;29.25;36.68
58239;BME280;44037;55.638;37.356;2023-07-31T12:00:54;98407.91;;;29.21;36.50
58239;BME280;44037;55.638;37.356;2023-07-31T12:03:22;98405.03;;;29.34;35.67
58239;BME280;44037;55.638;37.356;2023-07-31T12:05:49;98412.78;;;29.57;35.78
58239;BME280;44037;55.638;37.356;2023-07-31T12:08:21;98408.78;;;29.82;34.48
58239;BME280;44037;55.638;37.356;2023-07-31T12:10:50;98409.09;;;29.99;34.50
58239;BME280;44037;55.638;37.356;2023-07-31T12:13:22;98411.19;;;30.15;35.04
58239;BME280;44037;55.638;37.356;2023-07-31T12:15:54;98410.78;;;30.29;34.04
58239;BME280;44037;55.638;37.356;2023-07-31T12:18:22;98401.75;;;30.40;33.03
58239;BME280;44037;55.638;37.356;2023-07-31T12:20:54;98406.53;;;30.27;33.85
58239;BME280;44037;55.638;37.356;2023-07-31T12:23:25;98414.56;;;30.17;33.80
58239;BME280;44037;55.638;37.356;2023-07-31T12:26:00;98413.00;;;30.14;34.54
58239;BME280;44037;55.638;37.356;2023-07-31T12:28:28;98392.22;;;30.18;34.60
58239;BME280;44037;55.638;37.356;2023-07-31T12:30:57;98410.50;;;30.23;34.37
58239;BME280;44037;55.638;37.356;2023-07-31T12:33:30;98415.56;;;30.16;34.24
58239;BME280;44037;55.638;37.356;2023-07-31T12:36:00;98412.75;;;30.17;34.10
58239;BME280;44037;55.638;37.356;2023-07-31T12:38:28;98414.00;;;30.23;34.36
58239;BME280;44037;55.638;37.356;2023-07-31T12:40:56;98419.06;;;30.16;34.70
58239;BME280;44037;55.638;37.356;2023-07-31T12:43:23;98407.53;;;30.06;34.25
58239;BME280;44037;55.638;37.356;2023-07-31T12:45:50;98417.34;;;29.86;34.70
58239;BME280;44037;55.638;37.356;2023-07-31T12:48:18;98419.41;;;29.63;35.10
58239;BME280;44037;55.638;37.356;2023-07-31T12:50:45;98423.72;;;29.44;36.04
58239;BME280;44037;55.638;37.356;2023-07-31T12:53:12;98418.91;;;29.38;36.10
58239;BME280;44037;55.638;37.356;2023-07-31T12:55:40;98417.69;;;29.42;35.95